Time;durP1;ratioP1;P1;durP2;ratioP2;P2;SDS_P1;SDS_P2;PMS_P1;PMS_P2;Temp;Humidity;BMP_temperature;BMP_pressure;BME280_temperature;BME280_humidity;BME280_pressure;Samples;Min_cycle;Max_cycle;Signal;HPM_P1;HPM_P2
2022/07/01 00:01:58;;;;;;;1.33;1.23;;;11.40;99.90;;;;;;4974238;28;20602;-77
2022/07/01 00:04:27;;;;;;;2.15;1.48;;;11.30;99.90;;;;;;4977320;28;20078;-77
2022/07/01 00:06:56;;;;;;;1.58;1.00;;;11.20;99.90;;;;;;4974297;28;20033;-77
2022/07/01 00:09:22;;;;;;;3.42;1.05;;;11.10;99.90;;;;;;4974402;28;20101;-77
2022/07/01 00:11:48;;;;;;;2.67;1.08;;;11.00;99.90;;;;;;4973864;28;20034;-77
2022/07/01 00:14:14;;;;;;;3.13;0.82;;;10.90;99.90;;;;;;4974285;28;20037;-78
2022/07/01 00:16:40;;;;;;;3.78;1.00;;;10.90;99.90;;;;;;4974303;28;20023;-77
2022/07/01 00:19:06;;;;;;;2.17;0.95;;;10.80;99.90;;;;;;4974094;28;20023;-78
2022/07/01 00:21:32;;;;;;;3.53;1.00;;;10.80;99.90;;;;;;4974213;28;20035;-77
2022/07/01 00:23:58;;;;;;;4.18;1.30;;;10.80;99.90;;;;;;4973905;28;20430;-77
2022/07/01 00:26:24;;;;;;;1.50;0.98;;;10.70;99.90;;;;;;4972603;28;20026;-77
2022/07/01 00:28:50;;;;;;;6.32;1.10;;;10.70;99.90;;;;;;4973857;28;20022;-78
2022/07/01 00:31:15;;;;;;;1.50;1.15;;;10.70;99.90;;;;;;4991608;23;20078;-74
2022/07/01 00:33:41;;;;;;;2.95;1.48;;;10.80;99.90;;;;;;4974798;28;20021;-75
2022/07/01 00:36:07;;;;;;;2.22;1.20;;;10.80;99.90;;;;;;4972905;28;20027;-75
2022/07/01 00:38:33;;;;;;;1.33;0.90;;;10.90;99.90;;;;;;4972496;28;20018;-75
2022/07/01 00:40:58;;;;;;;2.92;1.23;;;10.90;99.90;;;;;;4972575;28;20093;-75
2022/07/01 00:43:25;;;;;;;1.10;1.00;;;10.90;99.90;;;;;;4972252;28;20014;-75
2022/07/01 00:45:52;;;;;;;1.63;1.30;;;10.90;99.90;;;;;;4971977;28;20526;-75
2022/07/01 00:48:19;;;;;;;4.32;1.33;;;11.00;99.90;;;;;;4972559;28;20030;-74
2022/07/01 00:50:45;;;;;;;6.15;1.48;;;11.00;99.90;;;;;;4972411;28;20023;-75
2022/07/01 00:53:13;;;;;;;3.50;1.25;;;11.00;99.90;;;;;;4972705;28;20018;-75
2022/07/01 00:55:40;;;;;;;1.75;1.10;;;11.20;99.90;;;;;;4972855;28;20101;-74
2022/07/01 00:58:06;;;;;;;2.15;1.27;;;11.40;99.90;;;;;;4972377;28;20093;-75
2022/07/01 01:00:32;;;;;;;2.63;1.38;;;11.50;99.90;;;;;;4971883;28;20033;-75
2022/07/01 01:02:59;;;;;;;2.28;1.73;;;11.60;99.90;;;;;;4972028;28;20101;-75
2022/07/01 01:05:25;;;;;;;7.88;1.45;;;11.80;99.90;;;;;;4972523;28;20038;-75
2022/07/01 01:07:51;;;;;;;4.57;1.55;;;11.90;99.90;;;;;;4971986;28;20056;-74
2022/07/01 01:10:18;;;;;;;11.75;1.73;;;12.00;99.90;;;;;;4972027;28;20094;-75
2022/07/01 01:12:44;;;;;;;4.20;1.45;;;12.10;99.90;;;;;;4972271;28;20019;-75
2022/07/01 01:15:16;;;;;;;5.40;1.52;;;12.20;99.90;;;;;;4971457;28;20500;-74
2022/07/01 01:17:42;;;;;;;;;;;12.30;99.90;;;;;;4972144;28;20057;-75
2022/07/01 01:20:08;;;;;;;5.15;1.50;;;12.50;99.90;;;;;;4972214;28;20008;-75
2022/07/01 01:22:34;;;;;;;6.22;1.15;;;12.60;99.90;;;;;;4971841;28;20438;-75
2022/07/01 01:25:00;;;;;;;5.07;1.33;;;12.70;99.90;;;;;;4971600;28;20049;-75
2022/07/01 01:27:25;;;;;;;9.13;1.35;;;12.70;99.90;;;;;;4972047;28;20435;-74
2022/07/01 01:29:51;;;;;;;11.02;2.00;;;12.60;99.90;;;;;;4972139;28;20031;-76
2022/07/01 01:32:17;;;;;;;4.35;1.15;;;12.40;99.90;;;;;;4970652;28;20065;-76
2022/07/01 01:34:43;;;;;;;2.08;1.20;;;12.30;99.90;;;;;;4971084;28;20479;-75
2022/07/01 01:37:09;;;;;;;1.52;1.00;;;12.20;99.90;;;;;;4972029;28;20109;-75
2022/07/01 01:39:38;;;;;;;4.07;1.20;;;12.20;99.90;;;;;;4971529;28;20033;-75
2022/07/01 01:42:07;;;;;;;4.45;1.50;;;12.20;99.90;;;;;;4971733;28;20027;-75
2022/07/01 01:44:33;;;;;;;5.07;1.70;;;12.20;99.90;;;;;;4971348;28;20667;-75
2022/07/01 01:46:59;;;;;;;2.00;0.85;;;12.20;99.90;;;;;;4971106;28;20551;-74
2022/07/01 01:49:25;;;;;;;2.17;1.00;;;12.20;99.90;;;;;;4971032;28;20114;-75
2022/07/01 01:51:51;;;;;;;1.95;0.95;;;12.10;99.90;;;;;;4971385;28;20122;-75
2022/07/01 01:54:16;;;;;;;1.45;0.80;;;11.90;99.90;;;;;;4971380;28;20466;-74
2022/07/01 01:56:42;;;;;;;1.10;1.00;;;11.90;99.90;;;;;;4971545;28;20077;-74
2022/07/01 01:59:08;;;;;;;0.70;0.68;;;11.80;99.90;;;;;;4971456;28;20033;-74
2022/07/01 02:01:34;;;;;;;1.33;0.80;;;11.80;99.90;;;;;;4971451;28;20470;-75
2022/07/01 02:03:59;;;;;;;0.88;0.75;;;11.60;99.90;;;;;;4970879;28;20033;-74
2022/07/01 02:06:26;;;;;;;0.75;0.68;;;11.60;99.90;;;;;;4971252;28;20476;-74
2022/07/01 02:08:52;;;;;;;0.60;0.60;;;11.40;99.90;;;;;;4971188;28;20019;-74
2022/07/01 02:11:18;;;;;;;0.70;0.70;;;11.30;99.90;;;;;;4971287;28;20380;-75
2022/07/01 02:13:44;;;;;;;2.03;1.02;;;11.20;99.90;;;;;;4971696;28;20019;-75
2022/07/01 02:16:10;;;;;;;3.03;0.85;;;11.10;99.90;;;;;;4971038;28;20094;-75
2022/07/01 02:18:36;;;;;;;0.63;0.63;;;11.00;99.90;;;;;;4970915;28;20420;-74
2022/07/01 02:21:02;;;;;;;1.60;0.77;;;10.90;99.90;;;;;;4971059;28;20109;-74
2022/07/01 02:23:29;;;;;;;2.35;0.80;;;10.80;99.90;;;;;;4970921;28;20029;-74
2022/07/01 02:25:55;;;;;;;1.10;1.00;;;10.70;99.90;;;;;;4971099;28;20040;-75
2022/07/01 02:28:21;;;;;;;2.95;0.65;;;10.60;99.90;;;;;;4971374;28;20025;-74
2022/07/01 02:30:47;;;;;;;0.90;0.80;;;10.60;99.90;;;;;;5000781;22;20451;-79
2022/07/01 02:33:13;;;;;;;0.77;0.77;;;10.50;99.90;;;;;;4974427;28;21442;-78
2022/07/01 02:35:40;;;;;;;0.50;0.50;;;10.40;99.90;;;;;;4975939;28;20077;-79
2022/07/01 02:38:07;;;;;;;1.85;0.70;;;10.40;99.90;;;;;;4976015;28;20035;-79
2022/07/01 02:40:36;;;;;;;0.85;0.70;;;10.30;99.90;;;;;;4975814;28;20019;-79
2022/07/01 02:43:02;;;;;;;0.40;0.40;;;10.20;99.90;;;;;;4976033;28;20081;-79
2022/07/01 02:45:27;;;;;;;0.60;0.60;;;10.20;99.90;;;;;;4975438;28;20438;-80
2022/07/01 02:47:53;;;;;;;1.88;0.80;;;10.10;99.90;;;;;;4975661;28;20031;-80
2022/07/01 02:50:19;;;;;;;3.10;0.90;;;10.00;99.90;;;;;;4975209;28;20165;-81
2022/07/01 02:52:45;;;;;;;0.95;0.63;;;9.90;99.90;;;;;;4975629;28;20023;-80
2022/07/01 02:55:13;;;;;;;0.50;0.50;;;9.90;99.90;;;;;;4975576;28;20023;-81
2022/07/01 02:57:43;;;;;;;1.48;0.60;;;9.90;99.90;;;;;;4975628;28;20033;-80
2022/07/01 03:00:11;;;;;;;1.02;0.82;;;9.80;99.90;;;;;;4975477;28;20065;-80
2022/07/01 03:02:37;;;;;;;0.73;0.65;;;9.80;99.90;;;;;;4975615;28;20022;-80
2022/07/01 03:05:04;;;;;;;0.73;0.60;;;9.80;99.90;;;;;;4974862;28;20027;-80
2022/07/01 03:07:30;;;;;;;0.50;0.50;;;9.80;99.90;;;;;;4975251;28;20062;-81
2022/07/01 03:09:56;;;;;;;1.13;0.70;;;9.80;99.90;;;;;;4975068;28;20026;-80
2022/07/01 03:12:25;;;;;;;0.75;0.75;;;9.70;99.90;;;;;;4974959;28;20038;-80
2022/07/01 03:14:56;;;;;;;0.50;0.50;;;9.60;99.90;;;;;;4975506;28;20094;-80
2022/07/01 03:17:25;;;;;;;1.67;0.60;;;9.50;99.90;;;;;;4975615;28;20038;-80
2022/07/01 03:19:52;;;;;;;1.95;0.63;;;9.50;99.90;;;;;;4981678;28;20034;-80
2022/07/01 03:22:20;;;;;;;0.60;0.60;;;9.40;99.90;;;;;;4975317;28;20026;-80
2022/07/01 03:24:47;;;;;;;1.70;1.13;;;9.30;99.90;;;;;;4975184;28;20022;-80
2022/07/01 03:27:13;;;;;;;1.23;1.00;;;9.20;99.90;;;;;;4975475;28;20054;-80
2022/07/01 03:29:39;;;;;;;1.00;0.80;;;9.30;99.90;;;;;;4992078;23;20015;-73
2022/07/01 03:32:05;;;;;;;1.42;0.90;;;9.30;99.90;;;;;;4989935;28;20045;-73
2022/07/01 03:34:31;;;;;;;1.05;0.95;;;9.20;99.90;;;;;;4974591;28;20078;-74
2022/07/01 03:36:57;;;;;;;0.80;0.80;;;9.20;99.90;;;;;;4974892;28;20034;-74
2022/07/01 03:39:23;;;;;;;0.70;0.70;;;9.40;99.90;;;;;;4975098;28;20019;-74
2022/07/01 03:41:49;;;;;;;0.90;0.80;;;9.40;99.90;;;;;;4974556;28;20125;-74
2022/07/01 03:44:15;;;;;;;1.77;1.15;;;9.40;99.90;;;;;;4974217;28;20049;-74
2022/07/01 03:46:40;;;;;;;1.02;0.80;;;9.30;99.90;;;;;;4974525;28;20425;-74
2022/07/01 03:49:08;;;;;;;1.33;0.90;;;9.30;99.90;;;;;;4974305;28;20110;-74
2022/07/01 03:51:34;;;;;;;1.65;1.30;;;9.30;99.90;;;;;;4974315;28;20065;-74
2022/07/01 03:56:44;;;;;;;0.90;0.90;;;9.40;99.90;;;;;;4974005;28;20029;-74
2022/07/01 03:59:10;;;;;;;1.20;1.10;;;9.60;99.90;;;;;;4974030;28;20453;-74
2022/07/01 04:01:35;;;;;;;1.35;1.20;;;9.50;99.90;;;;;;4980978;28;20046;-74
2022/07/01 04:04:01;;;;;;;1.77;1.10;;;9.50;99.90;;;;;;4976427;28;20479;-74
2022/07/01 04:06:27;;;;;;;1.35;1.20;;;9.50;99.90;;;;;;4973765;28;20025;-74
2022/07/01 04:08:53;;;;;;;1.85;1.30;;;9.50;99.90;;;;;;4974221;28;20041;-74
2022/07/01 04:11:19;;;;;;;2.17;1.23;;;9.50;99.90;;;;;;4973720;28;20110;-74
2022/07/01 04:13:50;;;;;;;1.63;1.42;;;9.50;99.90;;;;;;4974256;28;20390;-74
2022/07/01 04:16:16;;;;;;;2.10;1.23;;;9.40;99.90;;;;;;4966945;28;20093;-74
2022/07/01 04:18:43;;;;;;;1.45;1.35;;;9.50;99.90;;;;;;4973579;28;20034;-74
2022/07/01 04:23:53;;;;;;;2.45;1.30;;;9.50;99.90;;;;;;4973785;28;20045;-74
2022/07/01 04:26:19;;;;;;;1.90;1.50;;;9.50;99.90;;;;;;4973923;28;20394;-74
2022/07/01 04:28:44;;;;;;;4.35;1.15;;;9.50;99.90;;;;;;4973976;28;20114;-74
2022/07/01 04:31:10;;;;;;;1.48;1.33;;;9.40;99.90;;;;;;4989205;22;20119;-80
2022/07/01 04:33:36;;;;;;;2.00;1.42;;;9.30;99.90;;;;;;4957699;28;20030;-80
2022/07/01 04:36:02;;;;;;;1.77;1.40;;;9.30;99.90;;;;;;4954732;28;20023;-81
2022/07/01 04:38:28;;;;;;;1.75;1.15;;;9.30;99.90;;;;;;4954921;28;20027;-80
2022/07/01 04:43:38;;;;;;;1.48;1.02;;;9.40;99.90;;;;;;4967344;28;20030;-80
2022/07/01 04:46:04;;;;;;;2.53;1.50;;;9.30;99.90;;;;;;4972374;28;20023;-80
2022/07/01 04:48:30;;;;;;;1.48;1.35;;;9.40;99.90;;;;;;4972925;28;20026;-80
2022/07/01 04:50:55;;;;;;;3.15;1.42;;;9.40;99.90;;;;;;4972451;28;20031;-81
2022/07/01 04:53:21;;;;;;;1.15;1.10;;;9.50;99.90;;;;;;4972748;28;20066;-81
2022/07/01 04:55:47;;;;;;;2.92;1.63;;;9.70;99.90;;;;;;4986855;28;20019;-80
2022/07/01 04:58:13;;;;;;;1.83;1.30;;;9.70;99.90;;;;;;4972768;28;20464;-81
2022/07/01 05:00:39;;;;;;;4.47;1.13;;;9.70;99.90;;;;;;4972323;28;20535;-80
2022/07/01 05:03:05;;;;;;;3.13;1.60;;;9.80;99.90;;;;;;4972414;28;20146;-80
2022/07/01 05:05:30;;;;;;;2.42;1.10;;;9.80;99.90;;;;;;4972549;28;20120;-80
2022/07/01 05:07:56;;;;;;;2.83;1.10;;;9.90;99.90;;;;;;4972072;28;20056;-80
2022/07/01 05:10:23;;;;;;;1.52;1.33;;;9.90;99.90;;;;;;4972386;28;20494;-80
2022/07/01 05:12:49;;;;;;;1.27;1.17;;;10.00;99.90;;;;;;4972217;28;20085;-81
2022/07/01 05:15:15;;;;;;;1.00;0.98;;;10.00;99.90;;;;;;4971946;28;20423;-81
2022/07/01 05:23:14;;;;;;;5.38;1.88;;;10.30;99.90;;;;;;4952440;28;20499;-81
2022/07/01 05:25:39;;;;;;;3.60;1.50;;;10.40;99.90;;;;;;4972262;28;20055;-81
2022/07/01 05:28:05;;;;;;;2.35;1.80;;;10.50;99.90;;;;;;4972263;28;20026;-81
2022/07/01 05:30:31;;;;;;;1.90;1.50;;;10.60;99.90;;;;;;5002588;23;20053;-74
2022/07/01 05:32:57;;;;;;;4.70;2.00;;;10.70;99.90;;;;;;5011925;28;20041;-74
2022/07/01 05:35:22;;;;;;;2.03;1.42;;;10.70;99.90;;;;;;5011863;28;20055;-73
2022/07/01 05:37:48;;;;;;;1.60;1.10;;;10.90;99.90;;;;;;5011111;28;20026;-74
2022/07/01 05:40:14;;;;;;;3.80;1.67;;;11.00;99.90;;;;;;5003710;28;20030;-74
2022/07/01 05:42:39;;;;;;;5.35;1.80;;;11.10;99.90;;;;;;4992190;28;20026;-74
2022/07/01 05:45:06;;;;;;;1.58;1.20;;;11.10;99.90;;;;;;4991917;28;20058;-74
2022/07/01 05:47:32;;;;;;;2.95;1.70;;;11.20;99.90;;;;;;4992076;28;20030;-74
2022/07/01 05:49:57;;;;;;;2.45;1.50;;;11.40;99.90;;;;;;4992278;28;20423;-74
2022/07/01 05:52:23;;;;;;;3.42;2.10;;;11.40;99.90;;;;;;4992130;28;20061;-73
2022/07/01 05:54:49;;;;;;;3.63;1.80;;;11.50;99.90;;;;;;4992472;28;20033;-74
2022/07/01 05:57:15;;;;;;;2.58;1.23;;;11.60;99.90;;;;;;4992047;28;20038;-74
2022/07/01 05:59:41;;;;;;;5.75;2.15;;;11.60;99.90;;;;;;4992367;28;20022;-74
2022/07/01 06:02:06;;;;;;;2.90;1.45;;;11.70;99.90;;;;;;4999769;28;20042;-73
2022/07/01 06:04:33;;;;;;;3.72;1.65;;;11.90;99.90;;;;;;4992177;28;20022;-74
2022/07/01 06:07:00;;;;;;;3.00;1.58;;;12.00;99.90;;;;;;4992572;28;20026;-74
2022/07/01 06:09:26;;;;;;;2.55;1.45;;;12.10;99.90;;;;;;4996339;28;20107;-74
2022/07/01 06:11:51;;;;;;;6.97;1.90;;;12.10;99.90;;;;;;4995758;28;20030;-74
2022/07/01 06:14:17;;;;;;;2.30;1.52;;;12.30;99.90;;;;;;4995887;28;20549;-74
2022/07/01 06:16:43;;;;;;;4.47;1.55;;;12.30;99.90;;;;;;4995916;28;20026;-74
2022/07/01 06:19:09;;;;;;;5.28;2.00;;;12.40;99.90;;;;;;4996067;28;20019;-74
2022/07/01 06:21:35;;;;;;;5.93;2.03;;;12.60;99.90;;;;;;4995286;28;20734;-74
2022/07/01 06:24:00;;;;;;;3.95;1.73;;;12.70;99.90;;;;;;4995671;28;20034;-74
2022/07/01 06:26:26;;;;;;;6.75;2.50;;;13.00;99.90;;;;;;4995676;28;20111;-74
2022/07/01 06:28:52;;;;;;;6.03;1.92;;;13.30;99.90;;;;;;4995320;28;20050;-74
2022/07/01 06:31:18;;;;;;;2.67;1.48;;;13.70;99.90;;;;;;4988366;23;20055;-79
2022/07/01 06:33:43;;;;;;;2.42;1.48;;;14.00;99.90;;;;;;4956368;28;20408;-80
2022/07/01 06:36:09;;;;;;;5.07;1.42;;;14.10;99.90;;;;;;4956576;28;20024;-80
2022/07/01 06:38:35;;;;;;;3.25;1.20;;;14.40;99.90;;;;;;4957008;28;20396;-79
2022/07/01 06:43:46;;;;;;;2.65;1.27;;;14.80;99.90;;;;;;4975425;28;20033;-79
2022/07/01 06:46:11;;;;;;;2.70;0.82;;;14.90;99.90;;;;;;4974509;28;20015;-79
2022/07/01 06:48:37;;;;;;;3.15;0.98;;;15.00;99.90;;;;;;4974346;28;20102;-79
2022/07/01 06:51:03;;;;;;;2.40;1.33;;;15.00;99.90;;;;;;4975248;28;20118;-79
2022/07/01 06:53:29;;;;;;;2.03;0.82;;;15.10;99.90;;;;;;4975435;28;20182;-80
2022/07/01 06:55:56;;;;;;;1.17;0.50;;;15.40;99.90;;;;;;4974891;28;20023;-79
2022/07/01 06:58:22;;;;;;;2.47;0.47;;;15.30;99.90;;;;;;4974982;28;20026;-80
2022/07/01 07:00:48;;;;;;;1.13;0.60;;;15.30;99.90;;;;;;4974896;28;20019;-80
2022/07/01 07:03:13;;;;;;;0.80;0.50;;;15.20;99.90;;;;;;4974460;28;20022;-79
2022/07/01 07:05:39;;;;;;;3.00;0.55;;;15.00;99.90;;;;;;4974807;28;20098;-78
2022/07/01 07:08:05;;;;;;;1.10;0.80;;;14.90;99.90;;;;;;4975131;28;20023;-80
2022/07/01 07:10:31;;;;;;;2.90;0.85;;;14.80;99.90;;;;;;4974235;28;20503;-79
2022/07/01 07:12:56;;;;;;;0.95;0.57;;;14.60;99.90;;;;;;4989199;28;20041;-79
2022/07/01 07:15:22;;;;;;;1.95;0.93;;;14.60;99.90;;;;;;4973440;28;20019;-79
2022/07/01 07:17:48;;;;;;;1.77;0.80;;;14.70;99.90;;;;;;4973997;28;20041;-79
2022/07/01 07:20:13;;;;;;;1.50;0.70;;;14.60;99.90;;;;;;4972984;28;20037;-79
2022/07/01 07:22:39;;;;;;;3.95;0.90;;;14.60;99.90;;;;;;4974009;28;20034;-80
2022/07/01 07:25:05;;;;;;;2.47;0.93;;;14.70;99.90;;;;;;4973973;28;20073;-81
2022/07/01 07:27:31;;;;;;;3.00;1.35;;;14.60;99.90;;;;;;4974488;28;20030;-80
2022/07/01 07:29:57;;;;;;;2.50;0.80;;;14.70;99.90;;;;;;4999260;23;20006;-72
2022/07/01 07:32:22;;;;;;;0.80;0.80;;;14.80;99.90;;;;;;5016904;28;20026;-71
2022/07/01 07:34:48;;;;;;;1.33;1.13;;;15.00;99.90;;;;;;5014951;28;20014;-72
2022/07/01 07:37:14;;;;;;;1.50;0.60;;;15.10;99.90;;;;;;5019208;28;20057;-71
2022/07/01 07:39:40;;;;;;;0.98;0.80;;;15.20;99.90;;;;;;5011663;28;20033;-71
2022/07/01 07:42:06;;;;;;;1.67;0.77;;;15.20;99.90;;;;;;4993177;28;20027;-72
2022/07/01 07:44:32;;;;;;;1.92;1.08;;;15.30;99.90;;;;;;4992915;28;20105;-72
2022/07/01 07:46:58;;;;;;;0.70;0.60;;;15.50;99.90;;;;;;4993911;28;20027;-73
2022/07/01 07:49:24;;;;;;;4.28;0.65;;;15.60;99.90;;;;;;4993669;28;20035;-72
2022/07/01 07:51:51;;;;;;;1.52;0.65;;;15.70;99.90;;;;;;4993708;28;20034;-72
2022/07/01 07:54:17;;;;;;;2.03;0.75;;;15.70;99.90;;;;;;4993350;28;20019;-73
2022/07/01 07:56:43;;;;;;;0.73;0.40;;;15.70;99.90;;;;;;4993917;28;20410;-72
2022/07/01 07:59:09;;;;;;;3.55;0.82;;;15.80;99.90;;;;;;4993408;28;20026;-72
2022/07/01 08:01:35;;;;;;;2.00;0.57;;;15.80;99.90;;;;;;4993363;28;20030;-72
2022/07/01 08:04:01;;;;;;;0.32;0.32;;;15.90;99.90;;;;;;4995338;28;20041;-72
2022/07/01 08:06:28;;;;;;;2.80;0.80;;;16.00;99.90;;;;;;4993972;28;20384;-72
2022/07/01 08:08:55;;;;;;;0.75;0.50;;;16.00;99.90;;;;;;4993818;28;20598;-72
2022/07/01 08:11:20;;;;;;;0.88;0.60;;;16.10;99.90;;;;;;4993778;28;20030;-72
2022/07/01 08:13:46;;;;;;;2.88;0.93;;;16.10;99.90;;;;;;4999615;28;20022;-72
2022/07/01 08:16:12;;;;;;;0.68;0.40;;;16.30;99.90;;;;;;4994065;28;20360;-72
2022/07/01 08:18:38;;;;;;;1.13;0.47;;;16.30;99.90;;;;;;4992326;28;20030;-72
2022/07/01 08:21:04;;;;;;;1.23;0.60;;;16.30;99.90;;;;;;4993788;28;20443;-72
2022/07/01 08:23:29;;;;;;;1.50;0.73;;;16.30;99.90;;;;;;4996430;28;20022;-72
2022/07/01 08:25:55;;;;;;;0.60;0.30;;;16.40;99.90;;;;;;4993040;28;20098;-72
2022/07/01 08:28:21;;;;;;;2.70;0.77;;;16.50;99.90;;;;;;4991868;28;20022;-72
2022/07/01 08:30:47;;;;;;;2.13;0.52;;;16.70;99.90;;;;;;5023079;23;20041;-79
2022/07/01 08:33:13;;;;;;;0.88;0.40;;;16.80;99.90;;;;;;5014954;28;20022;-78
2022/07/01 08:35:39;;;;;;;0.95;0.30;;;16.90;99.90;;;;;;5012415;28;20021;-78
2022/07/01 08:38:05;;;;;;;1.75;0.50;;;17.00;99.90;;;;;;5013502;28;20053;-79
2022/07/01 08:40:32;;;;;;;0.50;0.50;;;17.40;99.90;;;;;;5005564;28;20025;-79
2022/07/01 08:43:03;;;;;;;1.70;0.47;;;18.00;99.90;;;;;;4993483;28;20026;-78
2022/07/01 08:45:31;;;;;;;2.55;0.60;;;18.80;99.90;;;;;;4993319;28;20071;-79
2022/07/01 08:48:02;;;;;;;0.40;0.40;;;19.70;99.70;;;;;;4993179;28;20026;-79
2022/07/01 08:50:34;;;;;;;2.17;0.50;;;20.50;87.70;;;;;;4993477;28;20030;-79
2022/07/01 08:53:00;;;;;;;1.45;0.40;;;21.30;81.70;;;;;;4993460;28;20088;-78
2022/07/01 08:55:28;;;;;;;0.95;0.20;;;21.90;70.80;;;;;;4992994;28;20022;-78
2022/07/01 08:57:53;;;;;;;2.05;0.73;;;22.40;63.10;;;;;;4993227;28;20026;-78
2022/07/01 09:00:20;;;;;;;0.40;0.20;;;22.70;60.80;;;;;;4993082;28;20021;-79
2022/07/01 09:02:57;;;;;;;1.08;0.20;;;22.90;62.30;;;;;;4994931;28;20030;-77
2022/07/01 09:05:25;;;;;;;2.17;0.43;;;23.30;57.70;;;;;;4999837;28;20019;-79
2022/07/01 09:08:01;;;;;;;2.03;0.30;;;23.50;60.30;;;;;;4993196;28;20018;-80
2022/07/01 09:10:30;;;;;;;0.88;0.25;;;23.80;59.20;;;;;;4992323;28;20030;-79
2022/07/01 09:12:56;;;;;;;1.85;0.47;;;24.00;56.90;;;;;;4992700;28;20048;-79
2022/07/01 09:15:25;;;;;;;1.35;0.40;;;24.20;57.60;;;;;;4991473;28;20105;-78
2022/07/01 09:17:56;;;;;;;0.32;0.20;;;24.50;56.70;;;;;;4992992;28;20010;-79
2022/07/01 09:20:33;;;;;;;2.10;0.40;;;25.20;55.00;;;;;;4992641;28;20506;-76
2022/07/01 09:23:14;;;;;;;0.98;0.35;;;25.20;54.50;;;;;;4992297;28;20042;-76
2022/07/01 09:25:44;;;;;;;0.85;0.20;;;25.30;56.30;;;;;;4999238;28;20025;-76
2022/07/01 09:28:14;;;;;;;3.05;0.50;;;25.70;54.90;;;;;;4992623;28;20026;-77
2022/07/01 09:30:43;;;;;;;3.28;0.30;;;26.10;54.00;;;;;;5007111;23;20038;-73
2022/07/01 09:33:11;;;;;;;2.58;0.60;;;26.00;53.70;;;;;;4993507;28;20496;-73
2022/07/01 09:35:37;;;;;;;1.45;0.65;;;25.60;53.40;;;;;;4991729;28;20117;-73
2022/07/01 09:38:05;;;;;;;1.60;0.30;;;25.40;56.90;;;;;;4991531;28;20018;-73
2022/07/01 09:40:51;;;;;;;3.47;0.50;;;25.70;54.60;;;;;;4992203;28;20026;-72
2022/07/01 09:43:27;;;;;;;0.40;0.20;;;25.10;56.90;;;;;;4992373;28;20470;-72
2022/07/01 09:46:07;;;;;;;3.42;0.50;;;25.20;55.00;;;;;;4991748;28;20029;-73
2022/07/01 09:48:33;;;;;;;0.55;0.30;;;25.40;54.60;;;;;;4992487;28;20057;-72
2022/07/01 09:51:00;;;;;;;2.40;0.50;;;25.80;54.90;;;;;;4992055;28;20061;-73
2022/07/01 09:53:28;;;;;;;1.75;0.30;;;25.30;55.90;;;;;;4992356;28;20070;-72
2022/07/01 09:55:54;;;;;;;3.20;0.73;;;24.60;57.70;;;;;;4992372;28;20104;-73
2022/07/01 09:58:20;;;;;;;2.95;0.57;;;24.90;55.50;;;;;;4992031;28;20559;-73
2022/07/01 10:00:46;;;;;;;2.95;0.60;;;25.10;55.00;;;;;;4991854;28;20101;-72
2022/07/01 10:03:12;;;;;;;1.13;0.35;;;25.30;55.30;;;;;;4992804;28;20118;-73
2022/07/01 10:05:44;;;;;;;3.40;0.50;;;25.30;56.60;;;;;;4998753;28;20014;-72
2022/07/01 10:08:34;;;;;;;5.72;0.65;;;26.10;53.70;;;;;;4992271;28;20037;-72
2022/07/01 10:11:17;;;;;;;3.30;0.40;;;25.50;54.50;;;;;;4991611;28;20034;-73
2022/07/01 10:13:44;;;;;;;1.80;0.30;;;25.40;54.70;;;;;;4992087;28;20018;-73
2022/07/01 10:16:10;;;;;;;1.55;0.47;;;25.30;55.10;;;;;;4991664;28;20018;-73
2022/07/01 10:18:36;;;;;;;1.35;0.40;;;25.30;56.30;;;;;;4991909;28;20018;-72
2022/07/01 10:21:04;;;;;;;2.25;0.30;;;25.60;54.30;;;;;;4992173;28;20180;-73
2022/07/01 10:23:44;;;;;;;2.25;0.50;;;25.70;53.10;;;;;;4992130;28;20022;-73
2022/07/01 10:26:13;;;;;;;1.50;0.47;;;26.10;54.90;;;;;;4992216;28;20050;-73
2022/07/01 10:28:43;;;;;;;0.80;0.38;;;25.40;52.30;;;;;;4992419;28;20029;-72
2022/07/01 10:31:15;;;;;;;3.13;0.60;;;25.20;55.30;;;;;;4991846;28;20073;-72
2022/07/01 10:33:49;;;;;;;2.83;0.57;;;24.60;55.40;;;;;;4993636;28;20503;-72
2022/07/01 10:36:28;;;;;;;5.03;0.63;;;25.20;55.20;;;;;;4992386;28;20022;-73
2022/07/01 10:41:42;;;;;;;1.73;0.28;;;26.00;52.90;;;;;;4992310;28;20088;-72
2022/07/01 10:44:13;;;;;;;2.47;0.40;;;26.50;53.70;;;;;;4992072;28;20029;-73
2022/07/01 10:46:58;;;;;;;1.02;0.40;;;26.10;52.20;;;;;;4991798;28;20073;-72
2022/07/01 10:49:36;;;;;;;2.33;0.57;;;25.30;53.50;;;;;;4990771;28;20475;-72
2022/07/01 10:52:10;;;;;;;2.95;0.30;;;25.30;54.90;;;;;;4991977;28;20038;-73
2022/07/01 10:54:36;;;;;;;1.77;0.40;;;26.60;55.60;;;;;;4993347;28;20026;-73
2022/07/01 10:57:27;;;;;;;4.03;0.40;;;27.30;49.50;;;;;;4995271;28;20639;-73
2022/07/01 10:59:59;;;;;;;1.80;0.43;;;28.70;47.50;;;;;;5006036;23;20035;-75
2022/07/01 11:02:30;;;;;;;4.15;0.88;;;29.20;47.00;;;;;;4978958;28;20039;-76
2022/07/01 11:04:57;;;;;;;;;;;28.10;47.40;;;;;;4976181;28;20019;-77
2022/07/01 11:07:33;;;;;;;2.25;0.50;;;27.30;46.70;;;;;;4975455;28;19933;-79
2022/07/01 11:10:00;;;;;;;2.67;0.40;;;26.80;51.80;;;;;;4975588;28;20061;-78
2022/07/01 11:12:28;;;;;;;1.13;0.35;;;27.30;50.80;;;;;;4975808;28;20034;-79
2022/07/01 11:14:58;;;;;;;3.20;0.70;;;26.70;47.60;;;;;;4976005;28;20018;-79
2022/07/01 11:17:25;;;;;;;2.30;0.32;;;26.60;49.00;;;;;;4975269;28;20113;-79
2022/07/01 11:19:57;;;;;;;4.20;0.50;;;26.40;50.60;;;;;;4982319;28;20018;-78
2022/07/01 11:22:28;;;;;;;2.47;0.47;;;26.80;51.00;;;;;;4975564;28;20018;-78
2022/07/01 11:24:56;;;;;;;1.38;0.43;;;27.40;48.00;;;;;;4975367;28;20015;-79
2022/07/01 11:27:23;;;;;;;0.93;0.30;;;27.90;50.00;;;;;;4975564;28;20027;-76
2022/07/01 11:30:04;;;;;;;3.88;0.40;;;28.20;48.40;;;;;;4975455;28;20019;-77
2022/07/01 11:32:31;;;;;;;1.35;0.17;;;28.80;49.20;;;;;;4977925;28;20089;-79
2022/07/01 11:34:59;;;;;;;2.92;0.30;;;28.20;45.90;;;;;;4975509;28;20027;-79
2022/07/01 11:40:15;;;;;;;2.45;0.40;;;29.00;45.80;;;;;;4975520;28;20069;-77
2022/07/01 11:42:41;;;;;;;1.42;0.17;;;29.10;46.20;;;;;;4975019;28;20027;-81
2022/07/01 11:45:08;;;;;;;2.58;0.30;;;29.00;46.50;;;;;;4975314;28;20054;-76
2022/07/01 11:47:34;;;;;;;5.57;0.55;;;29.60;46.10;;;;;;4975007;28;20038;-80
2022/07/01 11:50:00;;;;;;;3.03;0.52;;;29.20;45.80;;;;;;4975024;28;20023;-76
2022/07/01 11:52:27;;;;;;;4.40;0.50;;;29.30;45.80;;;;;;4973837;28;20026;-78
2022/07/01 11:54:59;;;;;;;3.38;0.50;;;29.20;44.90;;;;;;4975153;28;20015;-80
2022/07/01 11:57:28;;;;;;;2.92;0.40;;;28.70;45.70;;;;;;4975182;28;20031;-78
2022/07/01 12:02:24;;;;;;;3.60;0.40;;;29.30;45.40;;;;;;4977068;28;20043;-74
2022/07/01 12:04:51;;;;;;;2.42;0.75;;;30.00;44.60;;;;;;4974857;28;20023;-73
2022/07/01 12:07:24;;;;;;;1.75;0.30;;;30.30;43.60;;;;;;4974791;28;20030;-73
2022/07/01 12:09:50;;;;;;;2.20;0.70;;;29.30;43.20;;;;;;4974869;28;20019;-73
2022/07/01 12:12:19;;;;;;;4.10;0.30;;;28.60;43.60;;;;;;4974382;28;20042;-73
2022/07/01 12:14:56;;;;;;;2.67;0.57;;;28.70;44.20;;;;;;4974695;28;20019;-73
2022/07/01 12:17:23;;;;;;;2.90;0.50;;;28.40;43.20;;;;;;4973986;28;20085;-73
2022/07/01 12:19:50;;;;;;;3.08;0.32;;;29.40;45.20;;;;;;4974325;28;20023;-73
2022/07/01 12:22:19;;;;;;;2.13;0.38;;;29.30;43.70;;;;;;4973117;28;20053;-73
2022/07/01 12:24:46;;;;;;;5.38;0.40;;;29.50;44.30;;;;;;4974340;28;20045;-74
2022/07/01 12:27:12;;;;;;;3.13;0.40;;;29.90;43.90;;;;;;4974457;28;20039;-74
2022/07/01 12:29:47;;;;;;;1.63;0.30;;;29.90;41.60;;;;;;4974714;28;20479;-74
2022/07/01 12:32:15;;;;;;;2.70;0.30;;;29.70;43.60;;;;;;4977933;28;20048;-74
2022/07/01 12:34:46;;;;;;;1.58;0.40;;;30.20;42.90;;;;;;4980251;28;20011;-73
2022/07/01 12:37:17;;;;;;;4.43;0.70;;;30.30;42.70;;;;;;4974035;28;20623;-74
2022/07/01 12:39:47;;;;;;;2.75;0.40;;;31.10;43.50;;;;;;4974185;28;20058;-74
2022/07/01 12:42:23;;;;;;;1.37;0.30;;;31.80;41.50;;;;;;4974192;28;20032;-74
2022/07/01 12:44:51;;;;;;;2.65;0.40;;;31.40;41.50;;;;;;4974152;28;20257;-73
2022/07/01 12:47:36;;;;;;;3.20;0.50;;;31.10;42.30;;;;;;4973675;28;20026;-74
2022/07/01 12:50:10;;;;;;;3.13;0.47;;;31.60;42.30;;;;;;4973600;28;20554;-74
2022/07/01 12:52:41;;;;;;;1.77;0.20;;;30.40;42.10;;;;;;4973624;28;20027;-74
2022/07/01 12:55:20;;;;;;;2.38;0.60;;;30.00;43.20;;;;;;4973927;28;20106;-74
2022/07/01 12:57:48;;;;;;;3.92;0.55;;;30.30;42.10;;;;;;4974035;28;20031;-74
2022/07/01 13:00:16;;;;;;;0.60;0.20;;;30.40;41.80;;;;;;4996729;23;20014;-77
2022/07/01 13:02:42;;;;;;;2.75;0.10;;;29.70;40.90;;;;;;4973876;28;20031;-79
2022/07/01 13:05:08;;;;;;;2.05;0.20;;;29.60;40.30;;;;;;4991768;28;20026;-76
2022/07/01 13:07:34;;;;;;;3.40;0.65;;;30.00;42.40;;;;;;4991845;28;20472;-79
2022/07/01 13:10:00;;;;;;;5.70;0.68;;;30.00;41.20;;;;;;4992046;28;20037;-80
2022/07/01 13:12:26;;;;;;;2.25;0.20;;;30.40;40.10;;;;;;4992054;28;20498;-79
2022/07/01 13:14:52;;;;;;;1.08;0.28;;;30.40;41.40;;;;;;4991933;28;20015;-79